Albert, KS (67511)

9:42 AM CDT on September 19, 2014 (GMT -0500)
Great Bend Municipal | Change Station
CLOSE
Current Station
Airport
Location: Great Bend,
Elevation: 1886 ft
Nearby Weather Stations
4.0 Earthquake: Medford, Oklahoma (13 hours ago)  

Elev 1886 ft 38.34 °N, 98.86 °W | Updated 7 minutes ago

Clear
Clear
72 °F
Feels Like 72 °F
N
8
Wind Variable Wind from SSW

Today
High -- | Low -- °F
--% Chance of Precip.
Yesterday
High -- | Low -- °F
Precip. -- in
7:21 AM 7:37 PM
Waning Crescent, 19% visible
Pressure 29.98 in
Visibility 10.0 miles
Clouds Clear
Dew Point 63 °F
Humidity 73%
Rainfall 0.00 in
Snow Depth Not available.
UV 2 out of 12
Pollen 6.90 out of 12
Air Quality Not available.
Flu Activity Not available.
METAR KGBD 191435Z AUTO 20007KT 10SM CLR 22/17 A2998 RMK AO1

More Conditions Fewer Conditions

Pressure 29.98 in
Visibility 10.0 miles
Clouds Clear
Dew Point 63 °F
Humidity 73%
Rainfall 0.00 in
Snow Depth Not available.
UV 2 out of 12
Pollen 6.90 out of 12
Air Quality Not available.
Flu Activity Not available.
METAR KGBD 191435Z AUTO 20007KT 10SM CLR 22/17 A2998 RMK AO1

More Conditions Fewer Conditions

10-Day Weather Forecast

Almanac

Astronomy

Sep. 19, 2014 Rise Set
Actual Time 7:21 AM CDT 7:37 PM CDT
Civil Twilight 6:54 AM CDT 8:04 PM CDT
Nautical Twilight 6:23 AM CDT 8:35 PM CDT
Astronomical Twilight 5:51 AM CDT 9:06 PM CDT
Moon 3:10 AM CDT 5:05 PM CDT
Length of Visible Light 13h 09m
Length of Day
12h 16m
Tomorrow will be 2m 28s shorter.
Waning Crescent, 19% of the Moon is Illuminated
Today
Waning Crescent
Sep 24
New
Oct 1
First Quarter
Oct 8
Full
Oct 15
Last Quarter

Today's Extremes

State Highs State Lows

Community

WunderPhotos

Upload Photos

1,754,630 photos uploaded!

WunderBlogs® & News

Nearby

Snow Depth

Station Depth Elevation
No new snow has been reported.

Earthquake Activity

City Distance Mag. Time & Date
Cherokee, Oklahoma 129 miles 2.8 10:11 PM CDT
2014-09-18
Medford, Oklahoma 150 miles 4.0 8:31 PM CDT
2014-09-18
Medford, Oklahoma 134 miles 3.0 5:28 AM CDT
2014-09-18
Helena, Oklahoma 138 miles 2.8 4:01 PM CDT
2014-09-17
Minimum magnitude displayed is 2.5.

Coastal Water Temperatures

Place Temperature
No Stations Reporting

Nearby Weather Stations